Time;durP1;ratioP1;P1;durP2;ratioP2;P2;SDS_P1;SDS_P2;PMS_P1;PMS_P2;Temp;Humidity;BMP_temperature;BMP_pressure;BME280_temperature;BME280_humidity;BME280_pressure;Samples;Min_cycle;Max_cycle;Signal;HPM_P1;HPM_P2
2022/11/05 00:09:31;;;;;;;7.63;5.63;;;8.70;99.90;;;;;;5024094;28;20239;-68
2022/11/05 00:17:28;;;;;;;14.20;5.93;;;8.80;99.90;;;;;;5001182;28;20242;-68
2022/11/05 00:19:54;;;;;;;8.03;5.67;;;8.70;99.90;;;;;;5021404;28;20214;-69
2022/11/05 00:25:13;;;;;;;7.37;5.90;;;8.70;99.90;;;;;;5028458;28;20229;-68
2022/11/05 00:27:39;;;;;;;10.00;5.70;;;8.80;99.90;;;;;;5020566;28;20182;-67
2022/11/05 00:30:06;;;;;;;7.70;5.73;;;8.80;99.90;;;;;;5013782;28;20213;-69
2022/11/05 00:32:35;;;;;;;6.10;5.10;;;8.90;99.90;;;;;;5027594;28;20193;-69
2022/11/05 00:35:00;;;;;;;7.23;5.07;;;8.90;99.90;;;;;;5014302;28;20199;-69
2022/11/05 00:37:27;;;;;;;8.63;5.60;;;8.80;99.90;;;;;;5029621;28;20187;-68
2022/11/05 00:39:52;;;;;;;10.87;5.83;;;8.90;99.90;;;;;;5024743;28;20215;-68
2022/11/05 00:45:03;;;;;;;8.37;4.53;;;8.90;99.90;;;;;;5022041;28;20285;-68
2022/11/05 00:50:15;;;;;;;8.53;4.87;;;8.80;99.90;;;;;;5030665;28;20225;-68
2022/11/05 00:52:56;;;;;;;4.77;4.30;;;8.80;99.90;;;;;;5022754;28;20179;-68
2022/11/05 00:55:23;;;;;;;5.43;4.40;;;8.70;99.90;;;;;;5027278;28;20210;-69
2022/11/05 00:57:48;;;;;;;8.47;5.30;;;8.60;99.90;;;;;;5034794;28;20697;-68
2022/11/05 01:00:15;;;;;;;8.50;5.27;;;8.60;99.90;;;;;;5032950;28;20219;-69
2022/11/05 01:02:40;;;;;;;11.43;5.77;;;8.60;99.90;;;;;;5033560;28;20194;-68
2022/11/05 01:05:06;;;;;;;6.00;4.57;;;8.60;99.90;;;;;;5025477;28;20214;-68
2022/11/05 01:07:32;;;;;;;6.70;4.97;;;8.70;99.90;;;;;;5000655;28;20225;-69
2022/11/05 01:09:58;;;;;;;9.87;4.90;;;8.70;99.90;;;;;;5027497;28;20659;-68
2022/11/05 01:12:23;;;;;;;9.70;5.63;;;8.70;99.90;;;;;;5032781;28;20261;-69
2022/11/05 01:14:49;;;;;;;7.93;5.33;;;8.70;99.90;;;;;;5031434;28;20554;-68
2022/11/05 01:17:15;;;;;;;6.27;5.00;;;8.60;99.90;;;;;;5025123;28;20186;-68
2022/11/05 01:19:41;;;;;;;7.80;4.80;;;8.50;99.90;;;;;;5034543;28;20245;-68
2022/11/05 01:22:07;;;;;;;6.83;4.67;;;8.40;99.90;;;;;;5035237;28;20190;-69
2022/11/05 01:24:32;;;;;;;5.43;4.80;;;8.50;99.90;;;;;;5027631;28;20191;-68
2022/11/05 01:26:58;;;;;;;5.27;4.67;;;8.40;99.90;;;;;;5034176;28;20198;-68
2022/11/05 01:29:24;;;;;;;8.37;5.53;;;8.30;99.90;;;;;;5022758;28;20605;-68
2022/11/05 01:31:49;;;;;;;7.53;5.03;;;8.40;99.90;;;;;;5028144;28;20205;-67
2022/11/05 01:34:15;;;;;;;8.30;5.70;;;8.30;99.90;;;;;;5033569;28;20243;-68
2022/11/05 01:36:41;;;;;;;8.77;5.60;;;8.30;99.90;;;;;;5032541;28;20670;-68
2022/11/05 01:39:06;;;;;;;8.27;5.50;;;8.30;99.90;;;;;;5033055;28;20229;-69
2022/11/05 01:41:32;;;;;;;7.07;5.50;;;8.30;99.90;;;;;;5034308;28;20221;-69
2022/11/05 01:43:58;;;;;;;7.57;5.27;;;8.40;99.90;;;;;;5030879;28;20186;-68
2022/11/05 01:46:39;;;;;;;7.60;5.13;;;8.30;99.90;;;;;;5034389;28;20186;-67
2022/11/05 01:49:27;;;;;;;10.07;5.40;;;8.30;99.90;;;;;;5031945;28;20182;-69
2022/11/05 01:51:54;;;;;;;6.00;5.10;;;8.30;99.90;;;;;;5030915;28;20507;-68
2022/11/05 01:54:25;;;;;;;9.33;5.10;;;8.20;99.90;;;;;;5024861;28;20242;-68
2022/11/05 01:57:05;;;;;;;11.17;5.70;;;8.10;99.90;;;;;;5033249;28;20193;-68
2022/11/05 01:59:39;;;;;;;9.30;5.90;;;8.10;99.90;;;;;;5031835;28;20198;-68
2022/11/05 02:02:07;;;;;;;10.43;7.03;;;8.30;99.90;;;;;;5044047;28;20302;-69
2022/11/05 02:04:41;;;;;;;11.73;6.60;;;8.50;99.90;;;;;;5032804;28;20636;-68
2022/11/05 02:07:09;;;;;;;8.37;6.33;;;8.70;99.90;;;;;;5033162;28;20257;-69
2022/11/05 02:10:04;;;;;;;6.47;5.80;;;8.50;99.90;;;;;;5034085;28;20191;-68
2022/11/05 02:12:31;;;;;;;8.73;6.07;;;8.30;99.90;;;;;;5026549;28;20175;-67
2022/11/05 02:14:57;;;;;;;9.27;6.00;;;8.40;99.90;;;;;;5018239;28;20195;-69
2022/11/05 02:17:40;;;;;;;12.27;6.83;;;8.30;99.90;;;;;;5028589;28;20270;-68
2022/11/05 02:20:09;;;;;;;9.90;6.60;;;8.40;99.90;;;;;;5026229;28;20218;-69
2022/11/05 02:23:02;;;;;;;11.93;8.73;;;8.50;99.90;;;;;;5031710;28;20240;-69
2022/11/05 02:25:30;;;;;;;8.77;6.20;;;8.50;99.90;;;;;;5018274;28;20217;-69
2022/11/05 02:28:22;;;;;;;12.17;7.70;;;8.40;99.90;;;;;;5019532;28;20698;-68
2022/11/05 02:30:53;;;;;;;8.57;5.77;;;8.30;99.90;;;;;;5024321;28;20187;-68
2022/11/05 02:33:46;;;;;;;8.93;6.23;;;8.40;99.90;;;;;;5031213;28;20225;-68
2022/11/05 02:36:42;;;;;;;15.57;8.30;;;8.40;99.90;;;;;;5028755;28;20179;-69
2022/11/05 02:39:25;;;;;;;9.60;6.83;;;8.40;99.90;;;;;;5025592;28;20186;-68
2022/11/05 02:41:57;;;;;;;14.03;7.57;;;8.40;99.90;;;;;;5026878;28;20667;-68
2022/11/05 02:44:36;;;;;;;10.93;7.10;;;8.40;99.90;;;;;;5027493;28;20238;-67
2022/11/05 02:47:39;;;;;;;10.00;7.30;;;8.30;99.90;;;;;;5033510;28;20225;-67
2022/11/05 02:50:14;;;;;;;16.50;7.63;;;8.30;99.90;;;;;;5030729;28;20229;-69
2022/11/05 02:52:45;;;;;;;12.03;7.07;;;8.30;99.90;;;;;;5032843;28;20639;-68
2022/11/05 02:55:30;;;;;;;13.83;7.60;;;8.30;99.90;;;;;;5027112;28;20194;-67
2022/11/05 02:57:58;;;;;;;11.93;7.70;;;8.30;99.90;;;;;;5023249;28;21142;-68
2022/11/05 03:00:42;;;;;;;12.20;7.80;;;8.30;99.90;;;;;;5021091;28;20214;-67
2022/11/05 03:03:15;;;;;;;13.07;7.30;;;8.20;99.90;;;;;;5030785;28;20199;-68
2022/11/05 03:05:57;;;;;;;12.77;8.60;;;8.30;99.90;;;;;;5032736;28;20244;-68
2022/11/05 03:08:30;;;;;;;15.40;7.83;;;8.20;99.90;;;;;;5028013;28;20191;-68
2022/11/05 03:11:28;;;;;;;14.63;8.53;;;8.10;99.90;;;;;;5032423;28;20191;-69
2022/11/05 03:14:01;;;;;;;10.13;7.73;;;7.90;99.90;;;;;;5023557;28;20230;-69
2022/11/05 03:16:35;;;;;;;9.23;7.27;;;7.80;99.90;;;;;;5021682;28;20342;-67
2022/11/05 03:19:05;;;;;;;15.00;7.87;;;7.80;99.90;;;;;;5021910;28;20226;-68
2022/11/05 03:21:51;;;;;;;10.17;7.93;;;7.90;99.90;;;;;;5025814;28;20265;-68
2022/11/05 03:24:22;;;;;;;13.53;8.63;;;8.00;99.90;;;;;;5030690;28;20543;-69
2022/11/05 03:26:59;;;;;;;12.87;8.30;;;8.00;99.90;;;;;;5026086;28;20183;-68
2022/11/05 03:29:29;;;;;;;10.03;8.03;;;7.80;99.90;;;;;;5026934;28;20220;-68
2022/11/05 03:31:58;;;;;;;9.90;7.87;;;8.00;99.90;;;;;;5026522;28;20202;-69
2022/11/05 03:34:35;;;;;;;9.93;7.47;;;7.90;99.90;;;;;;5032047;28;20190;-69
2022/11/05 03:37:03;;;;;;;13.43;8.43;;;7.70;99.90;;;;;;5026895;28;20209;-68
2022/11/05 03:39:36;;;;;;;13.83;8.37;;;7.60;99.90;;;;;;5031347;28;20186;-68
2022/11/05 03:42:06;;;;;;;14.73;9.07;;;7.50;99.90;;;;;;5024099;28;20186;-68
2022/11/05 03:44:35;;;;;;;10.33;7.83;;;7.60;99.90;;;;;;5030725;28;20190;-68
2022/11/05 03:47:05;;;;;;;12.17;8.80;;;7.50;99.90;;;;;;5028140;28;20205;-68
2022/11/05 03:49:39;;;;;;;10.53;7.80;;;7.40;99.90;;;;;;5028748;28;20213;-68
2022/11/05 03:52:18;;;;;;;15.30;8.57;;;7.50;99.90;;;;;;5023832;28;20190;-68
2022/11/05 03:54:45;;;;;;;11.60;8.23;;;7.60;99.90;;;;;;5031957;28;20182;-69
2022/11/05 03:57:36;;;;;;;11.33;8.60;;;7.60;99.90;;;;;;5031472;28;20514;-68
2022/11/05 04:00:06;;;;;;;16.13;8.97;;;7.60;99.90;;;;;;5022089;28;20566;-68
2022/11/05 04:02:32;;;;;;;15.73;9.37;;;7.80;99.90;;;;;;5021930;28;20191;-68
2022/11/05 04:04:57;;;;;;;14.13;8.73;;;7.80;99.90;;;;;;5021908;28;20198;-68
2022/11/05 04:18:21;;;;;;;11.73;8.97;;;7.70;99.90;;;;;;5028121;28;20615;-69
2022/11/05 04:26:15;;;;;;;14.80;8.80;;;7.60;99.90;;;;;;5027215;28;20276;-67
2022/11/05 04:31:26;;;;;;;16.40;10.10;;;7.30;99.90;;;;;;5031426;28;20199;-68
2022/11/05 04:33:52;;;;;;;14.30;9.90;;;7.30;99.90;;;;;;5034211;28;20244;-68
2022/11/05 04:36:18;;;;;;;16.30;9.60;;;7.30;99.90;;;;;;5031671;28;20180;-68
2022/11/05 04:38:44;;;;;;;14.87;9.33;;;7.20;99.90;;;;;;5032124;28;20584;-68
2022/11/05 04:41:14;;;;;;;11.87;9.10;;;7.20;99.90;;;;;;5035630;28;20207;-69
2022/11/05 04:43:40;;;;;;;13.00;10.13;;;7.30;99.90;;;;;;5028081;28;20186;-67
2022/11/05 04:46:06;;;;;;;17.63;9.83;;;7.30;99.90;;;;;;5035581;28;20181;-67
2022/11/05 04:48:32;;;;;;;10.53;7.97;;;7.30;99.90;;;;;;5017490;28;20648;-69
2022/11/05 04:50:57;;;;;;;11.43;8.27;;;7.30;99.90;;;;;;5016725;28;20197;-68
2022/11/05 04:53:23;;;;;;;13.20;9.10;;;7.20;99.90;;;;;;5012763;28;20186;-67
2022/11/05 04:55:48;;;;;;;15.40;8.73;;;7.20;99.90;;;;;;5034407;28;20206;-68
2022/11/05 04:58:15;;;;;;;12.73;9.40;;;7.30;99.90;;;;;;5033926;28;20217;-67
2022/11/05 05:00:41;;;;;;;17.13;9.53;;;7.30;99.90;;;;;;5025229;28;20211;-68
2022/11/05 05:03:06;;;;;;;12.77;8.80;;;7.40;99.90;;;;;;5033885;28;20190;-68
2022/11/05 05:05:32;;;;;;;10.43;8.70;;;7.50;99.90;;;;;;5035030;28;20197;-68
2022/11/05 05:08:02;;;;;;;12.50;8.87;;;7.40;99.90;;;;;;5032831;28;20586;-68
2022/11/05 05:10:28;;;;;;;11.43;9.03;;;7.40;99.90;;;;;;5033935;28;20214;-68
2022/11/05 05:12:53;;;;;;;15.27;9.07;;;7.30;99.90;;;;;;5034567;28;20264;-68
2022/11/05 05:15:19;;;;;;;13.57;8.60;;;7.30;99.90;;;;;;5034355;28;20187;-68
2022/11/05 05:17:50;;;;;;;10.60;7.57;;;7.20;99.90;;;;;;5034999;28;20178;-68
2022/11/05 05:23:00;;;;;;;11.07;7.93;;;7.10;99.90;;;;;;5030630;28;20198;-68
2022/11/05 05:25:26;;;;;;;10.50;8.40;;;7.00;99.90;;;;;;5023032;28;20188;-68
2022/11/05 05:27:55;;;;;;;16.60;8.40;;;7.00;99.90;;;;;;5027506;28;20663;-68
2022/11/05 05:30:20;;;;;;;12.47;8.70;;;6.90;99.90;;;;;;5031554;28;20195;-68
2022/11/05 05:32:46;;;;;;;13.73;9.37;;;6.90;99.90;;;;;;5024916;28;20257;-68
2022/11/05 05:35:11;;;;;;;11.07;8.47;;;6.90;99.90;;;;;;5023771;28;20238;-68
2022/11/05 05:37:37;;;;;;;13.73;9.37;;;7.10;99.90;;;;;;5032156;28;20588;-67
2022/11/05 05:40:03;;;;;;;19.63;9.87;;;7.10;99.90;;;;;;5032002;28;20221;-68
2022/11/05 05:42:29;;;;;;;10.67;8.20;;;7.00;99.90;;;;;;5023085;28;20187;-68
2022/11/05 05:44:54;;;;;;;12.80;9.27;;;7.00;99.90;;;;;;5022880;28;20203;-68
2022/11/05 05:47:20;;;;;;;15.43;10.57;;;7.10;99.90;;;;;;5027307;28;20589;-68
2022/11/05 05:49:45;;;;;;;15.00;9.90;;;7.10;99.90;;;;;;5030725;28;20182;-68
2022/11/05 05:52:11;;;;;;;14.33;9.23;;;7.40;99.90;;;;;;5032888;28;20217;-68
2022/11/05 05:54:37;;;;;;;20.97;10.70;;;7.50;99.90;;;;;;5029208;28;20550;-68
2022/11/05 05:57:02;;;;;;;15.13;11.70;;;7.60;99.90;;;;;;5016095;28;20244;-68
2022/11/05 05:59:28;;;;;;;24.53;11.20;;;7.70;99.90;;;;;;5031628;28;20290;-68
2022/11/05 06:01:54;;;;;;;19.87;11.53;;;7.70;99.90;;;;;;5033976;28;20207;-68
2022/11/05 06:04:19;;;;;;;20.00;11.23;;;7.60;99.90;;;;;;5026549;28;20240;-68
2022/11/05 06:06:48;;;;;;;20.80;11.50;;;7.60;99.90;;;;;;5033269;28;20531;-68
2022/11/05 06:09:14;;;;;;;17.97;10.17;;;7.40;99.90;;;;;;5032748;28;20183;-68
2022/11/05 06:11:40;;;;;;;15.23;11.00;;;7.20;99.90;;;;;;5032168;28;20640;-68
2022/11/05 06:14:08;;;;;;;21.47;11.23;;;7.10;99.90;;;;;;5028574;28;20317;-67
2022/11/05 06:16:34;;;;;;;14.33;10.53;;;7.00;99.90;;;;;;5032057;28;20270;-69
2022/11/05 06:19:01;;;;;;;12.77;10.70;;;6.90;99.90;;;;;;5031514;28;20643;-68
2022/11/05 06:21:27;;;;;;;17.97;11.53;;;6.80;99.90;;;;;;5030705;28;20238;-69
2022/11/05 06:23:52;;;;;;;16.63;11.03;;;6.70;99.90;;;;;;5031979;28;20207;-68
2022/11/05 06:26:18;;;;;;;15.17;10.27;;;6.80;99.90;;;;;;5032777;28;20679;-68
2022/11/05 06:28:45;;;;;;;15.43;9.73;;;6.80;99.90;;;;;;5028982;28;20198;-68
2022/11/05 06:31:11;;;;;;;14.67;9.80;;;6.80;99.90;;;;;;5033306;28;20245;-68
2022/11/05 06:33:38;;;;;;;18.07;10.60;;;7.10;99.90;;;;;;5032130;28;20178;-68
2022/11/05 06:36:04;;;;;;;18.67;10.40;;;7.10;99.90;;;;;;5033360;28;20190;-68
2022/11/05 06:38:32;;;;;;;14.33;9.77;;;7.20;99.90;;;;;;5032396;28;20191;-68
2022/11/05 06:40:59;;;;;;;15.00;11.00;;;7.10;99.90;;;;;;5030674;28;20229;-68
2022/11/05 06:43:25;;;;;;;14.90;10.80;;;7.00;99.90;;;;;;5023780;28;20230;-68
2022/11/05 06:45:51;;;;;;;24.63;11.03;;;6.90;99.90;;;;;;5028912;28;20179;-68
2022/11/05 06:48:16;;;;;;;15.43;10.37;;;7.00;99.90;;;;;;5015271;28;20596;-68
2022/11/05 06:50:45;;;;;;;13.63;9.57;;;7.20;99.90;;;;;;5031796;28;20274;-68
2022/11/05 06:53:12;;;;;;;17.03;10.83;;;7.40;99.90;;;;;;5039190;28;20190;-68
2022/11/05 06:55:38;;;;;;;16.53;9.90;;;7.20;99.90;;;;;;5003165;28;20218;-68
2022/11/05 06:58:03;;;;;;;15.13;9.80;;;7.30;99.90;;;;;;5024210;28;20602;-68
2022/11/05 07:00:29;;;;;;;15.07;10.10;;;7.40;99.90;;;;;;5032257;28;20229;-68
2022/11/05 07:03:02;;;;;;;11.47;8.93;;;7.40;99.90;;;;;;5024401;28;20186;-70
2022/11/05 07:05:27;;;;;;;12.07;9.20;;;7.20;99.90;;;;;;5027764;28;20189;-68
2022/11/05 07:07:53;;;;;;;16.90;10.63;;;7.10;99.90;;;;;;5032780;28;20270;-68
2022/11/05 07:10:19;;;;;;;21.03;9.13;;;7.00;99.90;;;;;;5032121;28;20198;-68
2022/11/05 07:12:44;;;;;;;22.90;12.03;;;7.10;99.90;;;;;;5014341;28;20277;-68
2022/11/05 07:15:11;;;;;;;19.50;11.30;;;7.10;99.90;;;;;;5022066;28;20194;-68
2022/11/05 07:17:38;;;;;;;13.93;9.90;;;7.10;99.90;;;;;;5027561;28;20210;-67
2022/11/05 07:20:06;;;;;;;17.67;9.37;;;7.30;99.90;;;;;;5027692;28;20214;-67
2022/11/05 07:22:33;;;;;;;18.73;10.10;;;7.30;99.90;;;;;;5029907;28;20186;-68
2022/11/05 07:25:03;;;;;;;15.33;9.47;;;7.20;99.90;;;;;;5025902;28;20178;-67
2022/11/05 07:27:28;;;;;;;17.47;10.47;;;7.20;99.90;;;;;;5018873;28;20199;-67
2022/11/05 07:29:54;;;;;;;17.50;10.33;;;7.40;99.90;;;;;;5028196;28;20206;-66
2022/11/05 07:32:20;;;;;;;16.80;10.40;;;7.20;99.90;;;;;;5031704;28;20709;-68
2022/11/05 07:34:45;;;;;;;15.37;9.77;;;7.20;99.90;;;;;;5027674;28;20193;-68
2022/11/05 07:37:11;;;;;;;16.97;10.43;;;7.30;99.90;;;;;;5031112;28;20653;-67
2022/11/05 07:39:37;;;;;;;12.17;9.80;;;7.40;99.90;;;;;;5010684;28;20187;-69
2022/11/05 07:42:02;;;;;;;15.80;10.27;;;7.50;99.90;;;;;;5013463;28;20253;-69
2022/11/05 07:44:28;;;;;;;18.17;10.47;;;7.70;99.90;;;;;;5024267;28;20191;-68
2022/11/05 07:46:53;;;;;;;18.73;11.60;;;8.00;99.90;;;;;;5016825;28;20195;-69
2022/11/05 07:49:19;;;;;;;20.63;11.67;;;8.40;99.90;;;;;;5014535;28;20182;-68
2022/11/05 07:51:45;;;;;;;16.77;9.80;;;8.60;99.90;;;;;;5014311;28;20615;-68
2022/11/05 07:54:10;;;;;;;16.93;10.27;;;8.60;99.90;;;;;;5030586;28;20254;-68
2022/11/05 07:56:36;;;;;;;16.83;11.80;;;8.40;99.90;;;;;;5014244;28;20190;-67
2022/11/05 07:59:02;;;;;;;20.50;11.13;;;8.10;99.90;;;;;;5031676;28;20210;-67
2022/11/05 08:01:27;;;;;;;20.73;10.63;;;8.10;99.90;;;;;;5014605;28;20214;-69
2022/11/05 08:03:53;;;;;;;17.70;9.83;;;8.30;99.90;;;;;;5029821;28;20663;-68
2022/11/05 08:06:19;;;;;;;16.77;10.57;;;8.30;99.90;;;;;;5023961;28;20179;-68
2022/11/05 08:08:45;;;;;;;16.30;10.90;;;8.20;99.90;;;;;;5034798;28;20189;-68
2022/11/05 08:11:11;;;;;;;17.63;11.50;;;8.20;99.90;;;;;;5030041;28;20233;-67
2022/11/05 08:13:37;;;;;;;17.43;10.73;;;8.20;99.90;;;;;;5027011;28;20184;-67
2022/11/05 08:16:04;;;;;;;15.33;10.10;;;8.30;99.90;;;;;;5031193;28;20185;-68
2022/11/05 08:18:31;;;;;;;17.73;11.77;;;8.40;99.90;;;;;;5017229;28;20187;-68
2022/11/05 08:21:02;;;;;;;20.90;12.83;;;8.50;99.90;;;;;;5022655;28;20214;-68
2022/11/05 08:23:30;;;;;;;17.67;10.27;;;8.70;99.90;;;;;;5033814;28;20213;-68
2022/11/05 08:25:56;;;;;;;22.20;11.27;;;8.90;99.90;;;;;;5022090;28;20218;-68
2022/11/05 08:28:23;;;;;;;18.50;13.23;;;9.10;99.90;;;;;;5030250;28;20191;-67
2022/11/05 08:30:50;;;;;;;16.67;10.20;;;9.10;99.90;;;;;;5000974;28;20648;-68
2022/11/05 08:33:16;;;;;;;17.73;11.60;;;9.20;99.90;;;;;;5017231;28;20310;-67
2022/11/05 08:35:42;;;;;;;20.83;11.30;;;9.40;99.90;;;;;;5025179;28;20188;-67
2022/11/05 08:38:14;;;;;;;19.63;11.20;;;9.50;99.90;;;;;;5029300;28;20249;-68
2022/11/05 08:40:41;;;;;;;18.33;10.03;;;9.50;99.90;;;;;;5018288;28;20210;-68
2022/11/05 08:43:09;;;;;;;13.23;10.63;;;9.50;99.90;;;;;;5035551;28;20178;-68
2022/11/05 08:45:35;;;;;;;18.10;9.53;;;9.40;99.90;;;;;;5027306;28;20261;-67
2022/11/05 08:48:04;;;;;;;15.40;9.83;;;9.50;99.90;;;;;;5017131;28;20256;-67
2022/11/05 08:50:30;;;;;;;15.97;9.80;;;9.50;99.90;;;;;;5025657;28;20174;-67
2022/11/05 08:52:56;;;;;;;14.90;9.87;;;9.50;99.90;;;;;;5034400;28;20183;-68
2022/11/05 08:55:22;;;;;;;11.07;8.67;;;9.50;99.90;;;;;;5019859;28;20191;-68
2022/11/05 08:57:47;;;;;;;16.70;9.57;;;9.60;99.90;;;;;;5028606;28;20201;-67
2022/11/05 09:00:14;;;;;;;14.83;8.00;;;9.50;99.90;;;;;;5034024;28;20211;-69
2022/11/05 09:02:40;;;;;;;13.23;9.10;;;9.50;99.90;;;;;;5050207;28;20221;-68
2022/11/05 09:05:06;;;;;;;12.80;8.20;;;9.50;99.90;;;;;;5033480;28;20253;-68
2022/11/05 09:07:32;;;;;;;15.10;8.50;;;9.60;99.90;;;;;;5025013;28;20214;-68
2022/11/05 09:09:58;;;;;;;12.83;7.73;;;9.70;99.90;;;;;;5025354;28;20203;-68
2022/11/05 09:12:23;;;;;;;11.37;7.37;;;9.70;99.90;;;;;;5039310;28;20194;-68
2022/11/05 09:14:49;;;;;;;19.30;9.00;;;9.90;99.90;;;;;;5017412;28;20187;-69
2022/11/05 09:17:17;;;;;;;11.43;7.27;;;10.00;99.90;;;;;;5034267;28;20551;-69
2022/11/05 09:19:43;;;;;;;8.90;6.73;;;10.20;99.90;;;;;;5024128;28;20178;-68
2022/11/05 09:22:11;;;;;;;13.57;7.67;;;10.10;99.90;;;;;;5034392;28;20230;-69
2022/11/05 09:24:38;;;;;;;12.23;7.47;;;10.10;99.90;;;;;;5033417;28;20662;-68
2022/11/05 09:27:04;;;;;;;13.17;6.13;;;10.20;99.90;;;;;;5034174;28;20179;-68
2022/11/05 09:29:30;;;;;;;12.10;6.37;;;10.00;99.90;;;;;;5015434;28;20611;-68
2022/11/05 09:31:55;;;;;;;7.50;6.00;;;10.30;99.90;;;;;;5030195;28;20203;-68
2022/11/05 09:34:22;;;;;;;9.27;5.53;;;10.40;99.90;;;;;;5031054;28;20183;-68
2022/11/05 09:36:47;;;;;;;7.67;5.27;;;10.50;99.90;;;;;;5032547;28;20191;-68
2022/11/05 09:39:13;;;;;;;10.33;5.80;;;10.50;99.90;;;;;;5027083;28;20187;-68
2022/11/05 09:41:42;;;;;;;7.63;4.83;;;10.50;99.90;;;;;;5043635;28;20222;-69
2022/11/05 09:44:14;;;;;;;12.23;5.40;;;10.80;99.90;;;;;;5019732;28;20640;-68
2022/11/05 09:46:55;;;;;;;8.50;5.17;;;10.80;99.90;;;;;;5034145;28;20631;-68
2022/11/05 09:49:28;;;;;;;6.77;5.03;;;10.60;99.90;;;;;;5032734;28;20639;-68
2022/11/05 09:51:57;;;;;;;9.00;5.30;;;10.80;99.90;;;;;;5033891;28;20612;-68
2022/11/05 09:54:27;;;;;;;9.67;5.43;;;10.90;99.90;;;;;;5030004;28;20183;-68
2022/11/05 09:56:54;;;;;;;11.32;5.60;;;11.00;99.90;;;;;;5032206;28;20175;-68
2022/11/05 09:59:31;;;;;;;9.20;5.57;;;11.10;99.90;;;;;;5033837;28;20636;-68
2022/11/05 10:02:22;;;;;;;6.53;5.20;;;11.40;99.90;;;;;;5027582;28;20230;-68
2022/11/05 10:04:51;;;;;;;7.43;5.53;;;11.10;99.90;;;;;;5030503;28;20206;-69
2022/11/05 10:07:21;;;;;;;11.18;5.00;;;10.90;99.90;;;;;;5032615;28;20182;-69
2022/11/05 10:09:52;;;;;;;5.03;4.60;;;11.20;99.90;;;;;;5023417;28;20545;-69
2022/11/05 10:12:29;;;;;;;9.93;5.07;;;11.30;99.90;;;;;;5032339;28;20213;-69
2022/11/05 10:15:18;;;;;;;10.65;5.32;;;11.40;99.90;;;;;;5021241;28;20535;-69
2022/11/05 10:17:48;;;;;;;6.97;4.50;;;11.40;99.90;;;;;;5032463;28;20656;-70
2022/11/05 10:20:22;;;;;;;10.52;5.00;;;11.60;99.90;;;;;;5034142;28;20241;-69
2022/11/05 10:22:53;;;;;;;6.00;4.45;;;11.70;99.90;;;;;;5046181;28;20183;-68
2022/11/05 10:25:21;;;;;;;8.00;4.80;;;11.70;99.90;;;;;;5026088;28;20178;-70
2022/11/05 10:27:52;;;;;;;6.70;4.85;;;11.60;99.90;;;;;;5030162;28;20175;-69
2022/11/05 10:30:19;;;;;;;6.73;4.83;;;11.60;99.90;;;;;;5028601;28;20202;-68
2022/11/05 10:32:46;;;;;;;5.70;4.40;;;11.70;99.90;;;;;;5017855;28;20179;-69
2022/11/05 10:35:17;;;;;;;12.57;5.90;;;11.60;99.90;;;;;;5031675;28;20185;-67
2022/11/05 10:37:45;;;;;;;7.23;5.27;;;11.50;99.90;;;;;;5025738;28;20186;-69
2022/11/05 10:40:29;;;;;;;5.93;4.97;;;11.50;99.90;;;;;;5030249;28;20207;-68
2022/11/05 10:43:11;;;;;;;7.78;4.85;;;11.50;99.90;;;;;;5032063;28;20194;-68
2022/11/05 10:45:54;;;;;;;6.47;4.82;;;11.60;99.90;;;;;;5033477;28;20277;-69
2022/11/05 10:48:22;;;;;;;7.20;5.28;;;11.70;99.90;;;;;;5028184;28;20202;-68
2022/11/05 10:50:48;;;;;;;6.80;5.40;;;11.80;99.90;;;;;;5026529;28;20222;-69
2022/11/05 10:53:18;;;;;;;7.97;5.00;;;11.90;99.90;;;;;;5032851;28;20252;-69
2022/11/05 10:55:47;;;;;;;10.18;4.43;;;12.10;99.90;;;;;;5033156;28;20226;-68
2022/11/05 10:58:15;;;;;;;6.72;4.22;;;12.30;99.90;;;;;;5022252;28;20187;-70
2022/11/05 11:00:44;;;;;;;5.60;5.03;;;12.40;99.90;;;;;;5029358;28;20293;-68
2022/11/05 11:03:31;;;;;;;9.90;5.07;;;12.50;99.90;;;;;;5032933;28;20183;-68
2022/11/05 11:06:00;;;;;;;5.82;4.97;;;12.50;99.90;;;;;;5031367;28;20256;-69
2022/11/05 11:08:26;;;;;;;7.68;4.47;;;12.50;99.90;;;;;;5031334;28;20189;-69
2022/11/05 11:10:57;;;;;;;5.00;4.32;;;12.60;99.90;;;;;;5025340;28;20205;-69
2022/11/05 11:13:46;;;;;;;5.40;4.13;;;12.70;99.90;;;;;;5026796;28;20715;-71
2022/11/05 11:16:15;;;;;;;6.20;3.78;;;12.70;99.90;;;;;;5026681;28;20183;-69
2022/11/05 11:18:42;;;;;;;6.57;4.68;;;12.50;99.90;;;;;;5032582;28;20185;-70
2022/11/05 11:21:21;;;;;;;5.20;3.65;;;12.40;99.90;;;;;;5030717;28;20214;-69
2022/11/05 11:24:08;;;;;;;4.25;3.50;;;12.20;99.90;;;;;;5029318;28;20543;-68
2022/11/05 11:26:38;;;;;;;4.85;3.88;;;12.10;99.90;;;;;;5028314;28;20175;-69
2022/11/05 11:29:12;;;;;;;6.38;4.22;;;12.10;99.90;;;;;;5013565;28;20200;-69
2022/11/05 11:31:39;;;;;;;7.35;3.65;;;12.10;99.90;;;;;;5027605;28;20191;-69
2022/11/05 11:34:12;;;;;;;9.80;4.30;;;12.10;99.90;;;;;;5022786;28;20185;-69
2022/11/05 11:36:44;;;;;;;5.72;4.05;;;12.20;99.90;;;;;;5029786;28;20171;-70
2022/11/05 11:39:16;;;;;;;7.90;4.53;;;12.20;99.90;;;;;;5026779;28;20183;-68
2022/11/05 11:41:43;;;;;;;8.98;4.72;;;12.30;99.90;;;;;;5029247;28;20210;-68
2022/11/05 11:44:25;;;;;;;5.32;3.97;;;12.40;99.90;;;;;;5029126;28;20198;-69
2022/11/05 11:46:54;;;;;;;5.47;4.50;;;12.30;99.90;;;;;;5019465;28;20266;-69
2022/11/05 11:49:48;;;;;;;6.53;4.47;;;12.30;99.90;;;;;;5030253;28;20208;-70
2022/11/05 11:52:18;;;;;;;5.32;4.50;;;12.60;99.90;;;;;;5030385;28;20320;-68
2022/11/05 11:54:44;;;;;;;6.57;4.15;;;12.80;99.90;;;;;;5029413;28;20232;-69
2022/11/05 11:57:24;;;;;;;5.25;4.10;;;12.90;99.90;;;;;;5025752;28;20281;-69
2022/11/05 11:59:54;;;;;;;4.82;4.32;;;12.80;99.90;;;;;;5026758;28;20186;-69
2022/11/05 12:02:41;;;;;;;5.35;4.53;;;13.00;99.90;;;;;;5027721;28;20244;-68
2022/11/05 12:05:27;;;;;;;4.55;3.65;;;13.10;99.90;;;;;;5017929;28;20209;-69
2022/11/05 12:07:56;;;;;;;8.20;4.10;;;13.20;99.90;;;;;;5025796;28;20258;-69
2022/11/05 12:10:47;;;;;;;7.28;4.53;;;13.30;99.90;;;;;;5024516;28;20265;-69
2022/11/05 12:13:21;;;;;;;5.30;3.55;;;13.40;99.90;;;;;;5031474;28;20228;-70
2022/11/05 12:15:52;;;;;;;4.72;3.70;;;13.30;99.90;;;;;;5015388;28;20217;-69
2022/11/05 12:18:48;;;;;;;4.95;4.20;;;13.60;99.90;;;;;;5014621;28;20267;-70
2022/11/05 12:21:41;;;;;;;3.75;3.45;;;13.80;99.90;;;;;;5016223;28;20230;-70
2022/11/05 12:24:10;;;;;;;6.05;3.65;;;13.60;99.90;;;;;;5040865;28;20187;-69
2022/11/05 12:26:50;;;;;;;4.72;3.97;;;13.40;99.90;;;;;;5019424;28;20179;-70
2022/11/05 12:29:21;;;;;;;4.13;3.72;;;13.40;99.90;;;;;;5030937;28;20195;-69
2022/11/05 12:31:50;;;;;;;7.00;4.15;;;13.40;99.90;;;;;;5018298;28;20278;-70
2022/11/05 12:34:22;;;;;;;9.15;4.50;;;13.50;99.90;;;;;;5024738;28;20178;-70
2022/11/05 12:36:56;;;;;;;7.15;5.18;;;13.50;99.90;;;;;;5029985;28;20175;-69
2022/11/05 12:39:22;;;;;;;8.73;5.47;;;13.60;99.90;;;;;;5030651;28;20178;-70
2022/11/05 12:42:06;;;;;;;6.13;4.78;;;13.70;99.90;;;;;;5029275;28;20565;-70
2022/11/05 12:44:51;;;;;;;13.02;5.78;;;13.60;99.90;;;;;;5027774;28;20193;-68
2022/11/05 12:47:51;;;;;;;9.55;4.82;;;13.50;99.90;;;;;;5026476;28;20182;-69
2022/11/05 12:50:38;;;;;;;6.43;4.22;;;13.50;99.90;;;;;;5028506;28;20214;-71
2022/11/05 12:53:29;;;;;;;9.35;5.05;;;13.40;99.90;;;;;;5031251;28;20179;-70
2022/11/05 12:55:58;;;;;;;5.15;4.35;;;13.20;99.90;;;;;;5032898;28;20186;-70
2022/11/05 12:58:55;;;;;;;5.07;4.60;;;13.20;99.90;;;;;;5031516;28;20184;-71
2022/11/05 13:01:30;;;;;;;9.75;4.57;;;13.10;99.90;;;;;;5011113;28;20230;-69
2022/11/05 13:04:05;;;;;;;7.63;5.22;;;13.20;99.90;;;;;;5047387;28;20224;-70
2022/11/05 13:06:41;;;;;;;8.18;4.95;;;13.30;99.90;;;;;;5029569;28;20269;-70
2022/11/05 13:09:14;;;;;;;9.55;4.60;;;13.30;99.90;;;;;;5024114;28;20175;-69
2022/11/05 13:12:02;;;;;;;7.47;4.72;;;13.40;99.90;;;;;;5027033;28;20552;-68
2022/11/05 13:14:42;;;;;;;7.25;4.40;;;13.60;99.90;;;;;;5033061;28;20627;-68
2022/11/05 13:17:15;;;;;;;18.58;6.57;;;13.80;99.90;;;;;;5027161;28;20204;-68
2022/11/05 13:19:45;;;;;;;6.72;4.53;;;13.80;99.90;;;;;;5032763;28;20233;-68
2022/11/05 13:22:31;;;;;;;7.38;4.53;;;13.80;99.90;;;;;;5033602;28;20222;-69
2022/11/05 13:25:26;;;;;;;4.57;3.85;;;13.70;99.90;;;;;;5033250;28;20266;-69
2022/11/05 13:28:03;;;;;;;7.68;4.63;;;13.90;99.90;;;;;;5034600;28;20183;-70
2022/11/05 13:30:37;;;;;;;7.07;4.95;;;14.00;99.90;;;;;;5031914;28;20202;-69
2022/11/05 13:33:33;;;;;;;9.68;5.00;;;13.80;99.90;;;;;;5034515;28;20174;-70
2022/11/05 13:39:18;;;;;;;6.88;4.65;;;13.80;99.90;;;;;;5031952;28;20236;-69
2022/11/05 13:41:59;;;;;;;5.30;4.07;;;13.90;99.90;;;;;;5026539;28;20202;-69
2022/11/05 13:44:43;;;;;;;7.13;4.38;;;13.70;99.90;;;;;;5034093;28;20182;-68
2022/11/05 13:47:26;;;;;;;4.68;4.18;;;13.70;99.90;;;;;;5033068;28;20187;-68
2022/11/05 13:50:12;;;;;;;11.13;5.22;;;13.90;99.90;;;;;;5033974;28;20174;-69
2022/11/05 13:52:53;;;;;;;7.47;4.85;;;14.00;99.90;;;;;;5030133;28;20181;-69